sensor_id;sensor_type;location;lat;lon;timestamp;P1;P2;P0
47810;PMS5003;33575;52.600;7.318;2022-11-04T00:00:02;15;15;
47810;PMS5003;33575;52.600;7.318;2022-11-04T00:02:32;15;15;
47810;PMS5003;33575;52.600;7.318;2022-11-04T00:05:02;17;17;
47810;PMS5003;33575;52.600;7.318;2022-11-04T00:07:33;17;14;
47810;PMS5003;33575;52.600;7.318;2022-11-04T00:10:03;15;15;
47810;PMS5003;33575;52.600;7.318;2022-11-04T00:12:33;17;16;
47810;PMS5003;33575;52.600;7.318;2022-11-04T00:15:04;18;18;
47810;PMS5003;33575;52.600;7.318;2022-11-04T00:17:34;17;16;
47810;PMS5003;33575;52.600;7.318;2022-11-04T00:20:05;15;15;
47810;PMS5003;33575;52.600;7.318;2022-11-04T00:22:35;14;12;
47810;PMS5003;33575;52.600;7.318;2022-11-04T00:27:35;11;9;
47810;PMS5003;33575;52.600;7.318;2022-11-04T00:30:07;11;10;
47810;PMS5003;33575;52.600;7.318;2022-11-04T00:32:36;8;8;
47810;PMS5003;33575;52.600;7.318;2022-11-04T00:35:07;5;4;
47810;PMS5003;33575;52.600;7.318;2022-11-04T00:37:38;6;5;
47810;PMS5003;33575;52.600;7.318;2022-11-04T00:40:09;6;6;
47810;PMS5003;33575;52.600;7.318;2022-11-04T00:42:39;2;2;
47810;PMS5003;33575;52.600;7.318;2022-11-04T00:45:09;5;5;
47810;PMS5003;33575;52.600;7.318;2022-11-04T00:47:40;6;5;
47810;PMS5003;33575;52.600;7.318;2022-11-04T00:50:10;6;6;
47810;PMS5003;33575;52.600;7.318;2022-11-04T00:52:41;4;4;
47810;PMS5003;33575;52.600;7.318;2022-11-04T00:55:11;4;4;
47810;PMS5003;33575;52.600;7.318;2022-11-04T00:57:42;4;4;
47810;PMS5003;33575;52.600;7.318;2022-11-04T01:00:13;3;3;
47810;PMS5003;33575;52.600;7.318;2022-11-04T01:02:43;6;5;
47810;PMS5003;33575;52.600;7.318;2022-11-04T01:05:14;2;2;
47810;PMS5003;33575;52.600;7.318;2022-11-04T01:07:44;4;4;
47810;PMS5003;33575;52.600;7.318;2022-11-04T01:10:15;3;3;
47810;PMS5003;33575;52.600;7.318;2022-11-04T01:12:45;5;5;
47810;PMS5003;33575;52.600;7.318;2022-11-04T01:15:16;4;2;
47810;PMS5003;33575;52.600;7.318;2022-11-04T01:17:46;4;4;
47810;PMS5003;33575;52.600;7.318;2022-11-04T01:20:17;4;4;
47810;PMS5003;33575;52.600;7.318;2022-11-04T01:22:47;2;2;
47810;PMS5003;33575;52.600;7.318;2022-11-04T01:25:18;4;4;
47810;PMS5003;33575;52.600;7.318;2022-11-04T01:27:48;4;4;
47810;PMS5003;33575;52.600;7.318;2022-11-04T01:30:19;4;4;
47810;PMS5003;33575;52.600;7.318;2022-11-04T01:32:49;5;5;
47810;PMS5003;33575;52.600;7.318;2022-11-04T01:35:20;4;4;
47810;PMS5003;33575;52.600;7.318;2022-11-04T01:37:51;5;5;
47810;PMS5003;33575;52.600;7.318;2022-11-04T01:40:21;5;5;
47810;PMS5003;33575;52.600;7.318;2022-11-04T01:42:52;6;6;
47810;PMS5003;33575;52.600;7.318;2022-11-04T01:45:22;6;6;
47810;PMS5003;33575;52.600;7.318;2022-11-04T01:47:54;4;4;
47810;PMS5003;33575;52.600;7.318;2022-11-04T01:50:23;9;8;
47810;PMS5003;33575;52.600;7.318;2022-11-04T01:52:55;6;6;
47810;PMS5003;33575;52.600;7.318;2022-11-04T01:55:25;8;7;
47810;PMS5003;33575;52.600;7.318;2022-11-04T01:57:55;7;7;
47810;PMS5003;33575;52.600;7.318;2022-11-04T02:00:25;8;8;
47810;PMS5003;33575;52.600;7.318;2022-11-04T02:02:57;9;9;
47810;PMS5003;33575;52.600;7.318;2022-11-04T02:05:26;10;10;
47810;PMS5003;33575;52.600;7.318;2022-11-04T02:07:57;9;9;
47810;PMS5003;33575;52.600;7.318;2022-11-04T02:10:28;10;10;
47810;PMS5003;33575;52.600;7.318;2022-11-04T02:12:58;12;10;
47810;PMS5003;33575;52.600;7.318;2022-11-04T02:15:31;11;10;
47810;PMS5003;33575;52.600;7.318;2022-11-04T02:18:02;13;12;
47810;PMS5003;33575;52.600;7.318;2022-11-04T02:20:33;11;11;
47810;PMS5003;33575;52.600;7.318;2022-11-04T02:25:33;11;10;
47810;PMS5003;33575;52.600;7.318;2022-11-04T02:30:32;11;11;
47810;PMS5003;33575;52.600;7.318;2022-11-04T02:33:04;12;10;
47810;PMS5003;33575;52.600;7.318;2022-11-04T02:35:36;14;13;
47810;PMS5003;33575;52.600;7.318;2022-11-04T02:38:05;14;13;
47810;PMS5003;33575;52.600;7.318;2022-11-04T02:40:35;15;15;
47810;PMS5003;33575;52.600;7.318;2022-11-04T02:43:06;15;14;
47810;PMS5003;33575;52.600;7.318;2022-11-04T02:45:35;12;12;
47810;PMS5003;33575;52.600;7.318;2022-11-04T02:48:06;14;14;
47810;PMS5003;33575;52.600;7.318;2022-11-04T02:50:37;13;12;
47810;PMS5003;33575;52.600;7.318;2022-11-04T02:53:06;22;20;
47810;PMS5003;33575;52.600;7.318;2022-11-04T02:55:37;15;14;
47810;PMS5003;33575;52.600;7.318;2022-11-04T02:58:08;17;16;
47810;PMS5003;33575;52.600;7.318;2022-11-04T03:00:38;17;16;
47810;PMS5003;33575;52.600;7.318;2022-11-04T03:03:09;13;13;
47810;PMS5003;33575;52.600;7.318;2022-11-04T03:05:38;12;12;
47810;PMS5003;33575;52.600;7.318;2022-11-04T03:08:11;13;12;
47810;PMS5003;33575;52.600;7.318;2022-11-04T03:10:40;13;12;
47810;PMS5003;33575;52.600;7.318;2022-11-04T03:13:11;10;9;
47810;PMS5003;33575;52.600;7.318;2022-11-04T03:15:43;9;8;
47810;PMS5003;33575;52.600;7.318;2022-11-04T03:18:14;12;12;
47810;PMS5003;33575;52.600;7.318;2022-11-04T03:20:41;8;8;
47810;PMS5003;33575;52.600;7.318;2022-11-04T03:23:12;9;9;
47810;PMS5003;33575;52.600;7.318;2022-11-04T03:25:43;15;13;
47810;PMS5003;33575;52.600;7.318;2022-11-04T03:28:18;10;10;
47810;PMS5003;33575;52.600;7.318;2022-11-04T03:30:44;11;10;
47810;PMS5003;33575;52.600;7.318;2022-11-04T03:33:16;11;10;
47810;PMS5003;33575;52.600;7.318;2022-11-04T03:35:45;10;9;
47810;PMS5003;33575;52.600;7.318;2022-11-04T03:38:15;16;15;
47810;PMS5003;33575;52.600;7.318;2022-11-04T03:40:46;12;11;
47810;PMS5003;33575;52.600;7.318;2022-11-04T03:43:17;9;9;
47810;PMS5003;33575;52.600;7.318;2022-11-04T03:45:47;12;11;
47810;PMS5003;33575;52.600;7.318;2022-11-04T03:48:17;11;11;
47810;PMS5003;33575;52.600;7.318;2022-11-04T03:50:48;10;10;
47810;PMS5003;33575;52.600;7.318;2022-11-04T03:53:19;10;10;
47810;PMS5003;33575;52.600;7.318;2022-11-04T03:55:54;12;12;
47810;PMS5003;33575;52.600;7.318;2022-11-04T03:58:23;10;9;
47810;PMS5003;33575;52.600;7.318;2022-11-04T04:00:52;10;9;
47810;PMS5003;33575;52.600;7.318;2022-11-04T04:03:22;9;9;
47810;PMS5003;33575;52.600;7.318;2022-11-04T04:05:52;12;11;
47810;PMS5003;33575;52.600;7.318;2022-11-04T04:08:25;11;11;
47810;PMS5003;33575;52.600;7.318;2022-11-04T04:10:55;9;8;
47810;PMS5003;33575;52.600;7.318;2022-11-04T04:13:26;11;11;
47810;PMS5003;33575;52.600;7.318;2022-11-04T04:15:54;10;9;
47810;PMS5003;33575;52.600;7.318;2022-11-04T04:18:26;9;8;
47810;PMS5003;33575;52.600;7.318;2022-11-04T04:20:55;12;10;
47810;PMS5003;33575;52.600;7.318;2022-11-04T04:23:26;9;8;
47810;PMS5003;33575;52.600;7.318;2022-11-04T04:25:57;8;8;
47810;PMS5003;33575;52.600;7.318;2022-11-04T04:28:26;8;8;
47810;PMS5003;33575;52.600;7.318;2022-11-04T04:31:00;8;8;
47810;PMS5003;33575;52.600;7.318;2022-11-04T04:33:27;11;10;
47810;PMS5003;33575;52.600;7.318;2022-11-04T04:35:58;9;9;
47810;PMS5003;33575;52.600;7.318;2022-11-04T04:38:29;13;13;
47810;PMS5003;33575;52.600;7.318;2022-11-04T04:41:01;12;11;
47810;PMS5003;33575;52.600;7.318;2022-11-04T04:43:30;13;12;
47810;PMS5003;33575;52.600;7.318;2022-11-04T04:46:00;12;11;
47810;PMS5003;33575;52.600;7.318;2022-11-04T04:48:30;11;10;
47810;PMS5003;33575;52.600;7.318;2022-11-04T04:51:01;10;10;
47810;PMS5003;33575;52.600;7.318;2022-11-04T04:53:32;14;14;
47810;PMS5003;33575;52.600;7.318;2022-11-04T04:56:02;11;11;
47810;PMS5003;33575;52.600;7.318;2022-11-04T04:58:32;10;9;
47810;PMS5003;33575;52.600;7.318;2022-11-04T05:01:03;12;11;
47810;PMS5003;33575;52.600;7.318;2022-11-04T05:03:34;9;9;
47810;PMS5003;33575;52.600;7.318;2022-11-04T05:06:05;10;10;
47810;PMS5003;33575;52.600;7.318;2022-11-04T05:08:35;10;10;
47810;PMS5003;33575;52.600;7.318;2022-11-04T05:11:05;10;10;
47810;PMS5003;33575;52.600;7.318;2022-11-04T05:13:36;15;10;
47810;PMS5003;33575;52.600;7.318;2022-11-04T05:16:07;9;9;
47810;PMS5003;33575;52.600;7.318;2022-11-04T05:18:37;12;12;
47810;PMS5003;33575;52.600;7.318;2022-11-04T05:21:09;9;9;
47810;PMS5003;33575;52.600;7.318;2022-11-04T05:23:38;13;11;
47810;PMS5003;33575;52.600;7.318;2022-11-04T05:26:09;11;11;
47810;PMS5003;33575;52.600;7.318;2022-11-04T05:28:39;10;10;
47810;PMS5003;33575;52.600;7.318;2022-11-04T05:31:10;11;11;
47810;PMS5003;33575;52.600;7.318;2022-11-04T05:33:40;9;8;
47810;PMS5003;33575;52.600;7.318;2022-11-04T05:36:12;10;10;
47810;PMS5003;33575;52.600;7.318;2022-11-04T05:38:42;7;7;
47810;PMS5003;33575;52.600;7.318;2022-11-04T05:41:12;12;11;
47810;PMS5003;33575;52.600;7.318;2022-11-04T05:43:43;13;11;
47810;PMS5003;33575;52.600;7.318;2022-11-04T05:46:13;10;9;
47810;PMS5003;33575;52.600;7.318;2022-11-04T05:48:43;12;11;
47810;PMS5003;33575;52.600;7.318;2022-11-04T05:51:14;14;14;
47810;PMS5003;33575;52.600;7.318;2022-11-04T05:53:44;9;9;
47810;PMS5003;33575;52.600;7.318;2022-11-04T05:56:15;10;8;
47810;PMS5003;33575;52.600;7.318;2022-11-04T05:58:45;12;10;
47810;PMS5003;33575;52.600;7.318;2022-11-04T06:03:47;11;10;
47810;PMS5003;33575;52.600;7.318;2022-11-04T06:06:17;11;11;
47810;PMS5003;33575;52.600;7.318;2022-11-04T06:08:48;12;12;
47810;PMS5003;33575;52.600;7.318;2022-11-04T06:11:18;11;11;
47810;PMS5003;33575;52.600;7.318;2022-11-04T06:13:48;11;11;
47810;PMS5003;33575;52.600;7.318;2022-11-04T06:16:19;11;11;
47810;PMS5003;33575;52.600;7.318;2022-11-04T06:18:49;11;11;
47810;PMS5003;33575;52.600;7.318;2022-11-04T06:21:22;13;12;
47810;PMS5003;33575;52.600;7.318;2022-11-04T06:23:50;13;11;
47810;PMS5003;33575;52.600;7.318;2022-11-04T06:26:26;11;11;
47810;PMS5003;33575;52.600;7.318;2022-11-04T06:28:51;11;10;
47810;PMS5003;33575;52.600;7.318;2022-11-04T06:31:21;17;14;
47810;PMS5003;33575;52.600;7.318;2022-11-04T06:33:51;12;12;
47810;PMS5003;33575;52.600;7.318;2022-11-04T06:36:22;10;9;
47810;PMS5003;33575;52.600;7.318;2022-11-04T06:38:52;12;11;
47810;PMS5003;33575;52.600;7.318;2022-11-04T06:41:23;12;11;
47810;PMS5003;33575;52.600;7.318;2022-11-04T06:43:53;13;13;
47810;PMS5003;33575;52.600;7.318;2022-11-04T06:46:25;13;13;
47810;PMS5003;33575;52.600;7.318;2022-11-04T06:48:54;14;14;
47810;PMS5003;33575;52.600;7.318;2022-11-04T06:51:25;13;12;
47810;PMS5003;33575;52.600;7.318;2022-11-04T06:53:55;18;17;
47810;PMS5003;33575;52.600;7.318;2022-11-04T06:56:25;17;17;
47810;PMS5003;33575;52.600;7.318;2022-11-04T06:58:56;17;15;
47810;PMS5003;33575;52.600;7.318;2022-11-04T07:01:27;20;19;
47810;PMS5003;33575;52.600;7.318;2022-11-04T07:03:57;25;24;
47810;PMS5003;33575;52.600;7.318;2022-11-04T07:06:27;16;16;
47810;PMS5003;33575;52.600;7.318;2022-11-04T07:08:58;17;17;
47810;PMS5003;33575;52.600;7.318;2022-11-04T07:11:29;20;19;
47810;PMS5003;33575;52.600;7.318;2022-11-04T07:13:58;25;22;
47810;PMS5003;33575;52.600;7.318;2022-11-04T07:16:28;26;24;
47810;PMS5003;33575;52.600;7.318;2022-11-04T07:18:59;30;28;
47810;PMS5003;33575;52.600;7.318;2022-11-04T07:21:30;29;28;
47810;PMS5003;33575;52.600;7.318;2022-11-04T07:24:00;28;27;
47810;PMS5003;33575;52.600;7.318;2022-11-04T07:26:30;30;27;
47810;PMS5003;33575;52.600;7.318;2022-11-04T07:29:01;35;33;
47810;PMS5003;33575;52.600;7.318;2022-11-04T07:31:32;35;33;
47810;PMS5003;33575;52.600;7.318;2022-11-04T07:34:02;37;35;
47810;PMS5003;33575;52.600;7.318;2022-11-04T07:36:33;35;34;
47810;PMS5003;33575;52.600;7.318;2022-11-04T07:39:03;32;30;
47810;PMS5003;33575;52.600;7.318;2022-11-04T07:41:34;32;32;
47810;PMS5003;33575;52.600;7.318;2022-11-04T07:44:04;37;35;
47810;PMS5003;33575;52.600;7.318;2022-11-04T07:46:35;44;39;
47810;PMS5003;33575;52.600;7.318;2022-11-04T07:49:05;41;37;
47810;PMS5003;33575;52.600;7.318;2022-11-04T07:51:35;41;35;
47810;PMS5003;33575;52.600;7.318;2022-11-04T07:54:05;38;35;
47810;PMS5003;33575;52.600;7.318;2022-11-04T07:56:35;40;38;
47810;PMS5003;33575;52.600;7.318;2022-11-04T07:59:05;40;37;
47810;PMS5003;33575;52.600;7.318;2022-11-04T08:01:36;42;41;
47810;PMS5003;33575;52.600;7.318;2022-11-04T08:04:06;44;41;
47810;PMS5003;33575;52.600;7.318;2022-11-04T08:06:36;43;40;
47810;PMS5003;33575;52.600;7.318;2022-11-04T08:09:07;38;37;
47810;PMS5003;33575;52.600;7.318;2022-11-04T08:11:37;38;38;
47810;PMS5003;33575;52.600;7.318;2022-11-04T08:14:07;40;38;
47810;PMS5003;33575;52.600;7.318;2022-11-04T08:16:38;39;36;
47810;PMS5003;33575;52.600;7.318;2022-11-04T08:19:08;39;38;
47810;PMS5003;33575;52.600;7.318;2022-11-04T08:21:38;41;37;
47810;PMS5003;33575;52.600;7.318;2022-11-04T08:24:09;40;35;
47810;PMS5003;33575;52.600;7.318;2022-11-04T08:26:40;42;40;
47810;PMS5003;33575;52.600;7.318;2022-11-04T08:29:10;50;41;
47810;PMS5003;33575;52.600;7.318;2022-11-04T08:31:41;43;40;
47810;PMS5003;33575;52.600;7.318;2022-11-04T08:34:11;34;33;
47810;PMS5003;33575;52.600;7.318;2022-11-04T08:36:41;37;35;
47810;PMS5003;33575;52.600;7.318;2022-11-04T08:39:12;34;31;
47810;PMS5003;33575;52.600;7.318;2022-11-04T08:41:42;38;36;
47810;PMS5003;33575;52.600;7.318;2022-11-04T08:44:12;35;34;
47810;PMS5003;33575;52.600;7.318;2022-11-04T08:46:43;43;39;
47810;PMS5003;33575;52.600;7.318;2022-11-04T08:49:17;36;34;
47810;PMS5003;33575;52.600;7.318;2022-11-04T08:51:44;43;40;
47810;PMS5003;33575;52.600;7.318;2022-11-04T08:54:13;42;38;
47810;PMS5003;33575;52.600;7.318;2022-11-04T08:56:44;39;35;
47810;PMS5003;33575;52.600;7.318;2022-11-04T08:59:14;42;38;
47810;PMS5003;33575;52.600;7.318;2022-11-04T09:01:45;39;38;
47810;PMS5003;33575;52.600;7.318;2022-11-04T09:04:16;35;32;
47810;PMS5003;33575;52.600;7.318;2022-11-04T09:06:46;40;38;
47810;PMS5003;33575;52.600;7.318;2022-11-04T09:09:17;41;39;
47810;PMS5003;33575;52.600;7.318;2022-11-04T09:11:47;32;30;
47810;PMS5003;33575;52.600;7.318;2022-11-04T09:14:18;37;35;
47810;PMS5003;33575;52.600;7.318;2022-11-04T09:16:48;38;34;
47810;PMS5003;33575;52.600;7.318;2022-11-04T09:19:19;34;33;
47810;PMS5003;33575;52.600;7.318;2022-11-04T09:21:50;28;28;
47810;PMS5003;33575;52.600;7.318;2022-11-04T09:24:20;28;24;
47810;PMS5003;33575;52.600;7.318;2022-11-04T09:26:51;32;30;
47810;PMS5003;33575;52.600;7.318;2022-11-04T09:29:22;42;38;
47810;PMS5003;33575;52.600;7.318;2022-11-04T09:31:52;33;28;
47810;PMS5003;33575;52.600;7.318;2022-11-04T09:34:23;40;37;
47810;PMS5003;33575;52.600;7.318;2022-11-04T09:36:54;34;32;
47810;PMS5003;33575;52.600;7.318;2022-11-04T09:39:24;31;26;
47810;PMS5003;33575;52.600;7.318;2022-11-04T09:41:58;33;29;
47810;PMS5003;33575;52.600;7.318;2022-11-04T09:44:26;29;26;
47810;PMS5003;33575;52.600;7.318;2022-11-04T09:46:57;26;25;
47810;PMS5003;33575;52.600;7.318;2022-11-04T09:49:28;31;27;
47810;PMS5003;33575;52.600;7.318;2022-11-04T09:51:57;29;28;
47810;PMS5003;33575;52.600;7.318;2022-11-04T09:54:31;27;25;
47810;PMS5003;33575;52.600;7.318;2022-11-04T09:56:58;24;23;
47810;PMS5003;33575;52.600;7.318;2022-11-04T09:59:31;25;25;
47810;PMS5003;33575;52.600;7.318;2022-11-04T10:02:04;27;23;
47810;PMS5003;33575;52.600;7.318;2022-11-04T10:04:35;22;21;
47810;PMS5003;33575;52.600;7.318;2022-11-04T10:07:05;31;30;
47810;PMS5003;33575;52.600;7.318;2022-11-04T10:09:35;25;25;
47810;PMS5003;33575;52.600;7.318;2022-11-04T10:12:06;27;26;
47810;PMS5003;33575;52.600;7.318;2022-11-04T10:14:43;26;25;
47810;PMS5003;33575;52.600;7.318;2022-11-04T10:17:06;29;26;
47810;PMS5003;33575;52.600;7.318;2022-11-04T10:19:37;31;27;
47810;PMS5003;33575;52.600;7.318;2022-11-04T10:22:08;34;29;
47810;PMS5003;33575;52.600;7.318;2022-11-04T10:24:39;23;23;
47810;PMS5003;33575;52.600;7.318;2022-11-04T10:27:08;26;24;
47810;PMS5003;33575;52.600;7.318;2022-11-04T10:29:36;30;28;
47810;PMS5003;33575;52.600;7.318;2022-11-04T10:32:10;29;28;
47810;PMS5003;33575;52.600;7.318;2022-11-04T10:34:38;30;27;
47810;PMS5003;33575;52.600;7.318;2022-11-04T10:37:08;24;20;
47810;PMS5003;33575;52.600;7.318;2022-11-04T10:39:39;30;27;
47810;PMS5003;33575;52.600;7.318;2022-11-04T10:42:08;27;25;
47810;PMS5003;33575;52.600;7.318;2022-11-04T10:44:38;25;22;
47810;PMS5003;33575;52.600;7.318;2022-11-04T10:47:12;30;29;
47810;PMS5003;33575;52.600;7.318;2022-11-04T10:52:09;22;21;
47810;PMS5003;33575;52.600;7.318;2022-11-04T10:54:40;23;20;
47810;PMS5003;33575;52.600;7.318;2022-11-04T10:57:10;29;25;
47810;PMS5003;33575;52.600;7.318;2022-11-04T10:59:46;21;21;
47810;PMS5003;33575;52.600;7.318;2022-11-04T11:02:11;24;23;
47810;PMS5003;33575;52.600;7.318;2022-11-04T11:04:41;27;26;
47810;PMS5003;33575;52.600;7.318;2022-11-04T11:07:12;22;22;
47810;PMS5003;33575;52.600;7.318;2022-11-04T11:09:47;20;19;
47810;PMS5003;33575;52.600;7.318;2022-11-04T11:12:18;20;18;
47810;PMS5003;33575;52.600;7.318;2022-11-04T11:14:43;24;23;
47810;PMS5003;33575;52.600;7.318;2022-11-04T11:17:18;30;24;
47810;PMS5003;33575;52.600;7.318;2022-11-04T11:19:44;23;22;
47810;PMS5003;33575;52.600;7.318;2022-11-04T11:24:44;25;22;
47810;PMS5003;33575;52.600;7.318;2022-11-04T11:27:15;26;24;
47810;PMS5003;33575;52.600;7.318;2022-11-04T11:29:45;24;24;
47810;PMS5003;33575;52.600;7.318;2022-11-04T11:32:18;25;25;
47810;PMS5003;33575;52.600;7.318;2022-11-04T11:34:46;26;25;
47810;PMS5003;33575;52.600;7.318;2022-11-04T11:37:18;26;25;
47810;PMS5003;33575;52.600;7.318;2022-11-04T11:39:47;30;28;
47810;PMS5003;33575;52.600;7.318;2022-11-04T11:42:17;28;28;
47810;PMS5003;33575;52.600;7.318;2022-11-04T11:44:48;30;28;
47810;PMS5003;33575;52.600;7.318;2022-11-04T11:47:18;26;26;
47810;PMS5003;33575;52.600;7.318;2022-11-04T11:54:49;28;26;
47810;PMS5003;33575;52.600;7.318;2022-11-04T11:57:28;22;20;
47810;PMS5003;33575;52.600;7.318;2022-11-04T11:59:55;20;19;
47810;PMS5003;33575;52.600;7.318;2022-11-04T12:02:23;22;21;
47810;PMS5003;33575;52.600;7.318;2022-11-04T12:04:56;21;20;
47810;PMS5003;33575;52.600;7.318;2022-11-04T12:07:28;19;17;
47810;PMS5003;33575;52.600;7.318;2022-11-04T12:09:52;17;17;
47810;PMS5003;33575;52.600;7.318;2022-11-04T12:14:56;23;19;
47810;PMS5003;33575;52.600;7.318;2022-11-04T12:17:29;20;20;
47810;PMS5003;33575;52.600;7.318;2022-11-04T12:19:57;23;22;
47810;PMS5003;33575;52.600;7.318;2022-11-04T12:22:27;18;18;
47810;PMS5003;33575;52.600;7.318;2022-11-04T12:24:59;14;14;
47810;PMS5003;33575;52.600;7.318;2022-11-04T12:27:28;15;15;
47810;PMS5003;33575;52.600;7.318;2022-11-04T12:30:00;16;14;
47810;PMS5003;33575;52.600;7.318;2022-11-04T12:32:28;16;16;
47810;PMS5003;33575;52.600;7.318;2022-11-04T12:35:02;17;17;
47810;PMS5003;33575;52.600;7.318;2022-11-04T12:37:29;22;20;
47810;PMS5003;33575;52.600;7.318;2022-11-04T12:40:02;19;16;
47810;PMS5003;33575;52.600;7.318;2022-11-04T12:42:35;17;16;
47810;PMS5003;33575;52.600;7.318;2022-11-04T12:45:01;21;20;
47810;PMS5003;33575;52.600;7.318;2022-11-04T12:47:31;19;19;
47810;PMS5003;33575;52.600;7.318;2022-11-04T12:50:02;17;16;
47810;PMS5003;33575;52.600;7.318;2022-11-04T12:52:34;15;13;
47810;PMS5003;33575;52.600;7.318;2022-11-04T12:55:03;16;15;
47810;PMS5003;33575;52.600;7.318;2022-11-04T12:57:31;14;13;
47810;PMS5003;33575;52.600;7.318;2022-11-04T13:00:04;15;12;
47810;PMS5003;33575;52.600;7.318;2022-11-04T13:02:32;16;16;
47810;PMS5003;33575;52.600;7.318;2022-11-04T13:05:04;16;15;
47810;PMS5003;33575;52.600;7.318;2022-11-04T13:07:32;15;15;
47810;PMS5003;33575;52.600;7.318;2022-11-04T13:10:04;19;17;
47810;PMS5003;33575;52.600;7.318;2022-11-04T13:12:35;15;15;
47810;PMS5003;33575;52.600;7.318;2022-11-04T13:15:06;16;16;
47810;PMS5003;33575;52.600;7.318;2022-11-04T13:17:34;17;17;
47810;PMS5003;33575;52.600;7.318;2022-11-04T13:20:05;14;13;
47810;PMS5003;33575;52.600;7.318;2022-11-04T13:22:35;21;19;
47810;PMS5003;33575;52.600;7.318;2022-11-04T13:25:06;18;17;
47810;PMS5003;33575;52.600;7.318;2022-11-04T13:27:36;24;20;
47810;PMS5003;33575;52.600;7.318;2022-11-04T13:30:08;15;15;
47810;PMS5003;33575;52.600;7.318;2022-11-04T13:32:37;21;19;
47810;PMS5003;33575;52.600;7.318;2022-11-04T13:35:08;19;18;
47810;PMS5003;33575;52.600;7.318;2022-11-04T13:37:38;24;21;
47810;PMS5003;33575;52.600;7.318;2022-11-04T13:40:10;20;18;
47810;PMS5003;33575;52.600;7.318;2022-11-04T13:42:43;22;20;
47810;PMS5003;33575;52.600;7.318;2022-11-04T13:45:09;16;15;
47810;PMS5003;33575;52.600;7.318;2022-11-04T13:47:42;16;15;
47810;PMS5003;33575;52.600;7.318;2022-11-04T13:50:12;17;17;
47810;PMS5003;33575;52.600;7.318;2022-11-04T13:52:39;16;15;
47810;PMS5003;33575;52.600;7.318;2022-11-04T13:55:16;22;20;
47810;PMS5003;33575;52.600;7.318;2022-11-04T14:02:41;21;20;
47810;PMS5003;33575;52.600;7.318;2022-11-04T14:12:42;18;17;
47810;PMS5003;33575;52.600;7.318;2022-11-04T14:15:14;23;22;
47810;PMS5003;33575;52.600;7.318;2022-11-04T14:22:47;23;19;
47810;PMS5003;33575;52.600;7.318;2022-11-04T14:25:17;21;21;
47810;PMS5003;33575;52.600;7.318;2022-11-04T14:27:44;20;18;
47810;PMS5003;33575;52.600;7.318;2022-11-04T14:32:44;18;17;
47810;PMS5003;33575;52.600;7.318;2022-11-04T14:35:16;25;21;
47810;PMS5003;33575;52.600;7.318;2022-11-04T14:37:46;19;15;
47810;PMS5003;33575;52.600;7.318;2022-11-04T14:42:47;3;2;
47810;PMS5003;33575;52.600;7.318;2022-11-04T14:45:19;1;1;
47810;PMS5003;33575;52.600;7.318;2022-11-04T14:47:49;1;1;
47810;PMS5003;33575;52.600;7.318;2022-11-04T14:50:19;2;2;
47810;PMS5003;33575;52.600;7.318;2022-11-04T14:52:49;1;1;
47810;PMS5003;33575;52.600;7.318;2022-11-04T14:55:20;1;1;
47810;PMS5003;33575;52.600;7.318;2022-11-04T14:57:50;1;1;
47810;PMS5003;33575;52.600;7.318;2022-11-04T15:00:25;1;1;
47810;PMS5003;33575;52.600;7.318;2022-11-04T15:05:21;1;1;
47810;PMS5003;33575;52.600;7.318;2022-11-04T15:07:51;1;1;
47810;PMS5003;33575;52.600;7.318;2022-11-04T15:10:22;2;1;
47810;PMS5003;33575;52.600;7.318;2022-11-04T15:12:57;1;1;
47810;PMS5003;33575;52.600;7.318;2022-11-04T15:15:25;1;1;
47810;PMS5003;33575;52.600;7.318;2022-11-04T15:17:55;3;2;
47810;PMS5003;33575;52.600;7.318;2022-11-04T15:20:24;1;1;
47810;PMS5003;33575;52.600;7.318;2022-11-04T15:22:54;1;1;
47810;PMS5003;33575;52.600;7.318;2022-11-04T15:25:25;1;1;
47810;PMS5003;33575;52.600;7.318;2022-11-04T15:27:55;2;2;
47810;PMS5003;33575;52.600;7.318;2022-11-04T15:30:27;1;1;
47810;PMS5003;33575;52.600;7.318;2022-11-04T15:32:57;1;1;
47810;PMS5003;33575;52.600;7.318;2022-11-04T15:35:27;0;0;
47810;PMS5003;33575;52.600;7.318;2022-11-04T15:37:58;1;1;
47810;PMS5003;33575;52.600;7.318;2022-11-04T15:40:28;0;0;
47810;PMS5003;33575;52.600;7.318;2022-11-04T15:42:58;2;2;
47810;PMS5003;33575;52.600;7.318;2022-11-04T15:45:33;1;1;
47810;PMS5003;33575;52.600;7.318;2022-11-04T15:50:30;3;2;
47810;PMS5003;33575;52.600;7.318;2022-11-04T15:53:07;3;3;
47810;PMS5003;33575;52.600;7.318;2022-11-04T15:55:31;2;2;
47810;PMS5003;33575;52.600;7.318;2022-11-04T15:58:01;2;1;
47810;PMS5003;33575;52.600;7.318;2022-11-04T16:00:32;1;1;
47810;PMS5003;33575;52.600;7.318;2022-11-04T16:03:02;2;2;
47810;PMS5003;33575;52.600;7.318;2022-11-04T16:05:33;3;2;
47810;PMS5003;33575;52.600;7.318;2022-11-04T16:10:35;2;2;
47810;PMS5003;33575;52.600;7.318;2022-11-04T16:15:35;7;4;
47810;PMS5003;33575;52.600;7.318;2022-11-04T16:18:06;3;3;
47810;PMS5003;33575;52.600;7.318;2022-11-04T16:20:36;2;2;
47810;PMS5003;33575;52.600;7.318;2022-11-04T16:25:37;3;2;
47810;PMS5003;33575;52.600;7.318;2022-11-04T16:30:38;3;3;
47810;PMS5003;33575;52.600;7.318;2022-11-04T16:33:09;3;3;
47810;PMS5003;33575;52.600;7.318;2022-11-04T16:35:39;3;2;
47810;PMS5003;33575;52.600;7.318;2022-11-04T16:38:09;2;2;
47810;PMS5003;33575;52.600;7.318;2022-11-04T16:40:40;2;1;
47810;PMS5003;33575;52.600;7.318;2022-11-04T16:43:11;3;2;
47810;PMS5003;33575;52.600;7.318;2022-11-04T16:45:41;1;1;
47810;PMS5003;33575;52.600;7.318;2022-11-04T16:48:11;2;2;
47810;PMS5003;33575;52.600;7.318;2022-11-04T16:50:42;1;0;
47810;PMS5003;33575;52.600;7.318;2022-11-04T16:53:13;3;3;
47810;PMS5003;33575;52.600;7.318;2022-11-04T16:55:43;2;2;
47810;PMS5003;33575;52.600;7.318;2022-11-04T16:58:15;2;2;
47810;PMS5003;33575;52.600;7.318;2022-11-04T17:00:44;2;2;
47810;PMS5003;33575;52.600;7.318;2022-11-04T17:03:15;3;3;
47810;PMS5003;33575;52.600;7.318;2022-11-04T17:05:45;2;2;
47810;PMS5003;33575;52.600;7.318;2022-11-04T17:08:16;2;2;
47810;PMS5003;33575;52.600;7.318;2022-11-04T17:10:46;2;1;
47810;PMS5003;33575;52.600;7.318;2022-11-04T17:13:17;1;1;
47810;PMS5003;33575;52.600;7.318;2022-11-04T17:15:47;2;2;
47810;PMS5003;33575;52.600;7.318;2022-11-04T17:18:18;4;3;
47810;PMS5003;33575;52.600;7.318;2022-11-04T17:20:49;4;4;
47810;PMS5003;33575;52.600;7.318;2022-11-04T17:23:19;4;2;
47810;PMS5003;33575;52.600;7.318;2022-11-04T17:25:49;4;2;
47810;PMS5003;33575;52.600;7.318;2022-11-04T17:28:20;3;3;
47810;PMS5003;33575;52.600;7.318;2022-11-04T17:30:50;5;3;
47810;PMS5003;33575;52.600;7.318;2022-11-04T17:33:21;3;3;
47810;PMS5003;33575;52.600;7.318;2022-11-04T17:35:51;2;2;
47810;PMS5003;33575;52.600;7.318;2022-11-04T17:38:22;1;1;
47810;PMS5003;33575;52.600;7.318;2022-11-04T17:40:52;3;2;
47810;PMS5003;33575;52.600;7.318;2022-11-04T17:43:23;2;2;
47810;PMS5003;33575;52.600;7.318;2022-11-04T17:45:54;3;3;
47810;PMS5003;33575;52.600;7.318;2022-11-04T17:48:24;4;3;